Time;durP1;ratioP1;P1;durP2;ratioP2;P2;SDS_P1;SDS_P2;PMS_P1;PMS_P2;Temp;Humidity;BMP_temperature;BMP_pressure;BME280_temperature;BME280_humidity;BME280_pressure;Samples;Min_cycle;Max_cycle;Signal;HPM_P1;HPM_P2
2022/03/06 00:02:06;;;;;;;23.35;11.98;;;-1.10;99.90;;;;;;5057773;28;20045;-91
2022/03/06 00:04:31;;;;;;;22.25;11.75;;;-0.70;99.90;;;;;;5074258;28;20056;-90
2022/03/06 00:06:57;;;;;;;26.25;12.63;;;-1.10;99.90;;;;;;5074571;28;20127;-91
2022/03/06 00:09:23;;;;;;;22.38;12.30;;;-1.10;99.90;;;;;;5057152;28;20110;-91
2022/03/06 00:11:50;;;;;;;24.13;12.23;;;-1.10;99.90;;;;;;5074686;28;20101;-91
2022/03/06 00:14:16;;;;;;;23.45;12.50;;;-1.20;99.90;;;;;;5074554;28;20136;-90
2022/03/06 00:16:41;;;;;;;25.02;11.60;;;-1.20;99.90;;;;;;5058134;28;20497;-91
2022/03/06 00:19:07;;;;;;;22.48;12.02;;;-1.20;99.90;;;;;;5057404;28;20147;-91
2022/03/06 00:21:34;;;;;;;27.88;12.65;;;-1.20;99.90;;;;;;5057285;28;20095;-91
2022/03/06 00:24:01;;;;;;;23.25;12.98;;;-1.20;99.90;;;;;;5074500;28;20047;-91
2022/03/06 00:26:27;;;;;;;20.92;13.05;;;-1.20;99.90;;;;;;5074253;28;20141;-91
2022/03/06 00:28:52;;;;;;;24.77;12.93;;;-1.20;99.90;;;;;;5057280;28;20106;-92
2022/03/06 00:31:18;;;;;;;24.95;13.63;;;-1.30;99.90;;;;;;5073756;28;20037;-90
2022/03/06 00:33:44;;;;;;;24.23;12.65;;;-1.30;99.90;;;;;;5057618;28;20139;-91
2022/03/06 00:36:09;;;;;;;25.13;14.10;;;-1.30;99.90;;;;;;5073889;28;20135;-90
2022/03/06 00:38:35;;;;;;;23.27;12.80;;;-1.30;99.90;;;;;;5074170;28;20039;-91
2022/03/06 00:41:01;;;;;;;23.65;13.98;;;-1.30;99.90;;;;;;5057454;28;20044;-92
2022/03/06 00:43:27;;;;;;;26.00;13.27;;;-1.30;99.90;;;;;;5074148;28;20056;-91
2022/03/06 00:45:53;;;;;;;21.63;13.13;;;-1.40;99.90;;;;;;5057493;28;20430;-91
2022/03/06 00:48:18;;;;;;;29.42;14.52;;;-1.40;99.90;;;;;;5074197;28;20063;-91
2022/03/06 00:50:44;;;;;;;25.58;13.73;;;-1.30;99.90;;;;;;5056813;28;20036;-92
2022/03/06 00:53:10;;;;;;;24.92;14.52;;;-1.40;99.90;;;;;;5074351;28;20049;-92
2022/03/06 00:55:37;;;;;;;26.27;13.77;;;-1.40;99.90;;;;;;5056825;28;20048;-91
2022/03/06 00:58:06;;;;;;;24.92;13.73;;;-1.40;99.90;;;;;;5056904;28;20048;-91
2022/03/06 01:00:40;;;;;;;24.95;13.73;;;-1.40;99.90;;;;;;5073759;28;20049;-92
2022/03/06 01:03:12;;;;;;;26.48;14.18;;;-1.40;99.90;;;;;;5073691;28;20045;-92
2022/03/06 01:05:38;;;;;;;25.48;13.60;;;-1.30;99.90;;;;;;5073505;28;20375;-91
2022/03/06 01:08:05;;;;;;;25.45;14.43;;;-1.30;99.90;;;;;;5057096;28;20068;-92
2022/03/06 01:10:32;;;;;;;27.40;14.30;;;-1.30;99.90;;;;;;5056553;28;20041;-92
2022/03/06 01:12:58;;;;;;;24.00;14.07;;;-1.30;99.90;;;;;;5056853;28;20052;-92
2022/03/06 01:15:24;;;;;;;23.75;14.82;;;-1.30;99.90;;;;;;5073454;28;20055;-91
2022/03/06 01:17:50;;;;;;;24.13;14.38;;;-1.30;99.90;;;;;;5073574;28;20044;-92
2022/03/06 01:20:17;;;;;;;28.35;14.65;;;-1.30;99.90;;;;;;5055989;28;20048;-92
2022/03/06 01:22:44;;;;;;;27.75;15.05;;;-1.00;99.90;;;;;;5073631;28;20048;-93
2022/03/06 01:25:10;;;;;;;23.80;14.15;;;-1.30;99.90;;;;;;5073390;28;20047;-92
2022/03/06 01:27:36;;;;;;;23.80;14.80;;;-1.30;99.90;;;;;;5073225;28;20040;-92
2022/03/06 01:30:05;;;;;;;24.45;14.18;;;-1.30;99.90;;;;;;5072985;28;20032;-92
2022/03/06 01:32:32;;;;;;;27.90;15.55;;;-1.20;99.90;;;;;;5073245;28;20087;-93
2022/03/06 01:34:57;;;;;;;23.35;14.57;;;-1.20;99.90;;;;;;5072848;28;20058;-93
2022/03/06 01:37:24;;;;;;;24.50;14.43;;;-1.20;99.90;;;;;;5073432;28;20123;-92
2022/03/06 01:39:50;;;;;;;25.00;14.27;;;-1.10;99.90;;;;;;5056791;28;20040;-92
2022/03/06 01:42:15;;;;;;;28.30;14.52;;;-1.10;99.90;;;;;;5056467;28;20052;-90
2022/03/06 01:44:50;;;;;;;25.55;15.10;;;-1.10;99.90;;;;;;5056479;28;20049;-92
2022/03/06 01:47:39;;;;;;;25.55;14.20;;;-1.10;99.90;;;;;;5056299;28;20402;-92
2022/03/06 01:50:13;;;;;;;24.17;13.95;;;-1.00;99.90;;;;;;4995725;28;20439;-90
2022/03/06 01:52:39;;;;;;;21.20;13.50;;;-0.90;99.90;;;;;;4995804;28;20050;-93
2022/03/06 01:55:05;;;;;;;25.50;14.18;;;-0.90;99.90;;;;;;4995949;28;20061;-92
2022/03/06 01:57:32;;;;;;;24.83;13.82;;;-0.80;99.90;;;;;;4995961;28;20108;-91
2022/03/06 02:00:05;;;;;;;25.52;14.57;;;-0.80;99.90;;;;;;4995542;28;20054;-92
2022/03/06 02:02:32;;;;;;;25.58;13.77;;;-0.80;99.90;;;;;;4996132;28;20050;-92
2022/03/06 02:04:59;;;;;;;19.10;13.63;;;-0.70;99.90;;;;;;4979617;28;20052;-92
2022/03/06 02:07:26;;;;;;;24.27;13.70;;;-0.70;99.90;;;;;;4995591;28;20057;-92
2022/03/06 02:09:52;;;;;;;25.60;14.18;;;-0.80;99.90;;;;;;4979376;28;20052;-92
2022/03/06 02:12:24;;;;;;;26.40;14.57;;;-0.80;99.90;;;;;;4995614;28;20046;-93
2022/03/06 02:14:50;;;;;;;24.08;13.88;;;-0.90;99.90;;;;;;4979176;28;20145;-92
2022/03/06 02:17:17;;;;;;;24.23;13.90;;;-1.00;99.90;;;;;;4995475;28;20045;-92
2022/03/06 02:20:04;;;;;;;23.17;13.93;;;-1.00;99.90;;;;;;4995510;28;20506;-92
2022/03/06 02:22:32;;;;;;;21.63;14.25;;;-0.50;99.90;;;;;;4994715;28;20137;-92
2022/03/06 02:24:59;;;;;;;25.77;14.93;;;-1.00;99.90;;;;;;4995527;28;20041;-93
2022/03/06 02:27:26;;;;;;;26.50;14.48;;;-1.00;99.90;;;;;;5043154;28;20058;-93
2022/03/06 02:29:53;;;;;;;23.00;14.00;;;-1.00;99.90;;;;;;5055496;28;20486;-93
2022/03/06 02:32:21;;;;;;;22.88;13.80;;;-0.90;99.90;;;;;;5055729;28;20048;-92
2022/03/06 02:34:49;;;;;;;22.38;13.57;;;-1.00;99.90;;;;;;5072716;28;20052;-92
2022/03/06 02:37:17;;;;;;;22.63;13.60;;;-1.00;99.90;;;;;;5072284;28;20084;-92
2022/03/06 02:39:43;;;;;;;24.33;14.95;;;-1.00;99.90;;;;;;5055747;28;20083;-93
2022/03/06 02:42:10;;;;;;;21.08;12.60;;;-1.10;99.90;;;;;;5054716;28;20065;-92
2022/03/06 02:44:36;;;;;;;25.02;13.45;;;-1.10;99.90;;;;;;5072526;28;20048;-91
2022/03/06 02:47:03;;;;;;;24.45;13.57;;;-1.20;99.90;;;;;;5055844;28;20041;-92
2022/03/06 02:49:29;;;;;;;25.27;13.30;;;-1.20;99.90;;;;;;5055246;28;20048;-93
2022/03/06 02:51:54;;;;;;;21.13;13.38;;;-1.20;99.90;;;;;;5072460;28;20430;-92
2022/03/06 02:54:20;;;;;;;22.27;13.52;;;-1.30;99.90;;;;;;5054703;28;20052;-91
2022/03/06 02:56:50;;;;;;;23.85;13.13;;;-1.20;99.90;;;;;;5072214;28;20044;-92
2022/03/06 02:59:16;;;;;;;25.45;13.57;;;-1.30;99.90;;;;;;5055329;28;20045;-92
2022/03/06 03:01:42;;;;;;;22.45;12.82;;;-1.30;99.90;;;;;;5055548;28;20080;-91
2022/03/06 03:04:09;;;;;;;24.58;12.68;;;-1.30;99.90;;;;;;5055137;28;20107;-92
2022/03/06 03:06:35;;;;;;;21.77;13.50;;;-1.30;99.90;;;;;;5055435;28;20040;-92
2022/03/06 03:09:05;;;;;;;20.30;11.70;;;-1.00;99.90;;;;;;5055308;28;20044;-92
2022/03/06 03:11:32;;;;;;;19.63;12.30;;;-1.30;99.90;;;;;;5072075;28;20124;-92
2022/03/06 03:13:58;;;;;;;19.88;12.45;;;-1.30;99.90;;;;;;5072158;28;20807;-92
2022/03/06 03:16:25;;;;;;;20.73;12.63;;;-1.30;99.90;;;;;;5072196;28;20110;-92
2022/03/06 03:18:50;;;;;;;19.67;11.90;;;-1.30;99.90;;;;;;5071829;28;20544;-91
2022/03/06 03:21:16;;;;;;;19.27;11.93;;;-1.30;99.90;;;;;;5071643;28;20135;-93
2022/03/06 03:23:42;;;;;;;21.58;12.32;;;-1.30;99.90;;;;;;5054819;28;20063;-92
2022/03/06 03:26:07;;;;;;;20.25;11.90;;;-1.30;99.90;;;;;;5071695;28;20088;-92
2022/03/06 03:28:33;;;;;;;23.42;12.52;;;-1.30;99.90;;;;;;5071919;28;20052;-92
2022/03/06 03:31:01;;;;;;;20.95;11.63;;;-1.30;99.90;;;;;;5071719;28;20485;-92
2022/03/06 03:33:26;;;;;;;21.00;11.95;;;-1.30;99.90;;;;;;5056378;28;20469;-93
2022/03/06 03:35:52;;;;;;;20.85;12.15;;;-1.40;99.90;;;;;;5059043;28;20083;-92
2022/03/06 03:38:18;;;;;;;20.70;12.05;;;-1.40;99.90;;;;;;5058239;28;20406;-92
2022/03/06 03:40:43;;;;;;;23.42;12.00;;;-1.40;99.90;;;;;;5075576;28;20451;-93
2022/03/06 03:43:09;;;;;;;21.60;12.00;;;-1.50;99.90;;;;;;5075402;28;20577;-92
2022/03/06 03:45:35;;;;;;;21.17;11.63;;;-1.50;99.90;;;;;;5075377;28;20089;-93
2022/03/06 03:48:01;;;;;;;20.10;11.55;;;-1.50;99.90;;;;;;5058970;28;20057;-93
2022/03/06 03:50:30;;;;;;;19.02;11.65;;;-1.60;99.90;;;;;;5058276;28;20136;-92
2022/03/06 03:52:55;;;;;;;25.70;11.80;;;-1.60;99.90;;;;;;5075280;28;20178;-92
2022/03/06 03:55:21;;;;;;;20.60;11.13;;;-1.50;99.90;;;;;;5075096;28;20522;-92
2022/03/06 03:57:46;;;;;;;21.00;11.15;;;-1.60;99.90;;;;;;5058580;28;20436;-92
2022/03/06 04:00:12;;;;;;;18.00;10.60;;;-1.60;99.90;;;;;;5058377;28;20052;-92
2022/03/06 04:02:38;;;;;;;22.33;11.27;;;-1.60;99.90;;;;;;5058454;28;20041;-92
2022/03/06 04:05:04;;;;;;;17.55;11.25;;;-1.60;99.90;;;;;;5058202;28;20149;-92
2022/03/06 04:07:30;;;;;;;22.08;10.90;;;-1.60;99.90;;;;;;5058169;28;20052;-93
2022/03/06 04:09:56;;;;;;;24.45;11.20;;;-1.60;99.90;;;;;;5074689;28;20040;-93
2022/03/06 04:12:21;;;;;;;18.90;10.95;;;-1.60;99.90;;;;;;5057973;28;20048;-92
2022/03/06 04:14:47;;;;;;;19.05;11.38;;;-1.60;99.90;;;;;;5074997;28;20442;-92
2022/03/06 04:17:12;;;;;;;21.23;10.57;;;-1.70;99.90;;;;;;5075101;28;20070;-93
2022/03/06 04:19:38;;;;;;;18.48;10.80;;;-1.70;99.90;;;;;;5074770;28;20482;-92
2022/03/06 04:22:04;;;;;;;24.50;12.23;;;-1.70;99.90;;;;;;5058171;28;20501;-92
2022/03/06 04:24:30;;;;;;;19.15;10.85;;;-1.60;99.90;;;;;;5074217;28;20491;-92
2022/03/06 04:26:55;;;;;;;19.05;10.55;;;-1.60;99.90;;;;;;5057973;28;20135;-93
2022/03/06 04:29:21;;;;;;;23.23;10.73;;;-1.60;99.90;;;;;;5074113;28;20114;-92
2022/03/06 04:31:47;;;;;;;17.83;10.10;;;-1.60;99.90;;;;;;5074670;28;20088;-92
2022/03/06 04:34:12;;;;;;;20.30;10.85;;;-1.60;99.90;;;;;;5057834;28;20059;-91
2022/03/06 04:36:39;;;;;;;17.95;10.48;;;-1.60;99.90;;;;;;5074489;28;20045;-92
2022/03/06 04:39:05;;;;;;;23.05;10.45;;;-1.60;99.90;;;;;;5074389;28;20101;-92
2022/03/06 04:41:31;;;;;;;19.83;11.23;;;-1.60;99.90;;;;;;5057735;28;20049;-93
2022/03/06 04:43:58;;;;;;;19.08;10.13;;;-1.60;99.90;;;;;;5074196;28;20409;-93
2022/03/06 04:46:23;;;;;;;17.83;10.43;;;-1.70;99.90;;;;;;5057259;28;20037;-92
2022/03/06 04:48:49;;;;;;;18.00;10.77;;;-1.70;99.90;;;;;;5074411;28;20041;-92
2022/03/06 04:51:16;;;;;;;18.02;11.20;;;-1.70;99.90;;;;;;5057369;28;20059;-92
2022/03/06 04:53:42;;;;;;;19.45;10.75;;;-1.70;99.90;;;;;;5057371;28;20044;-93
2022/03/06 04:56:09;;;;;;;20.35;11.15;;;-1.70;99.90;;;;;;5074131;28;20379;-92
2022/03/06 04:58:35;;;;;;;22.27;11.07;;;-1.70;99.90;;;;;;5073695;28;20493;-93
2022/03/06 05:01:01;;;;;;;16.02;10.20;;;-1.70;99.90;;;;;;5074116;28;20045;-92
2022/03/06 05:03:27;;;;;;;22.58;10.35;;;-1.80;99.90;;;;;;5074047;28;20059;-93
2022/03/06 05:05:52;;;;;;;18.15;10.73;;;-1.80;99.90;;;;;;5057216;28;20136;-93
2022/03/06 05:08:18;;;;;;;16.88;10.55;;;-1.80;99.90;;;;;;5057199;28;20044;-92
2022/03/06 05:10:44;;;;;;;17.20;10.15;;;-1.70;99.90;;;;;;5073707;28;20044;-91
2022/03/06 05:13:09;;;;;;;18.20;10.75;;;-1.70;99.90;;;;;;5056867;28;20045;-92
2022/03/06 05:15:36;;;;;;;16.20;9.80;;;-1.30;99.90;;;;;;5057004;28;20044;-91
2022/03/06 05:18:02;;;;;;;15.95;9.85;;;-1.70;99.90;;;;;;5056524;28;20060;-92
2022/03/06 05:20:28;;;;;;;15.30;10.38;;;-1.70;99.90;;;;;;5056434;28;20044;-92
2022/03/06 05:22:54;;;;;;;19.58;8.95;;;-1.30;99.90;;;;;;5073083;28;20503;-92
2022/03/06 05:25:19;;;;;;;18.90;9.77;;;-1.60;99.90;;;;;;5056834;28;20051;-93
2022/03/06 05:27:45;;;;;;;15.82;9.63;;;-1.60;99.90;;;;;;5056413;28;20056;-92
2022/03/06 05:30:13;;;;;;;15.45;9.63;;;-1.60;99.90;;;;;;5072830;28;20100;-91
2022/03/06 05:32:40;;;;;;;17.83;9.38;;;-1.60;99.90;;;;;;5073596;28;20402;-92
2022/03/06 05:35:06;;;;;;;18.35;10.40;;;-1.60;99.90;;;;;;5057014;28;20044;-92
2022/03/06 05:37:32;;;;;;;18.15;9.52;;;-1.60;99.90;;;;;;5073298;28;20083;-92
2022/03/06 05:39:58;;;;;;;14.43;8.30;;;-1.60;99.90;;;;;;5073201;28;20086;-92
2022/03/06 05:42:24;;;;;;;14.70;8.95;;;-1.60;99.90;;;;;;5072890;28;20548;-91
2022/03/06 05:44:50;;;;;;;14.55;8.98;;;-1.60;99.90;;;;;;5072785;28;20394;-92
2022/03/06 05:47:15;;;;;;;16.52;9.15;;;-1.60;99.90;;;;;;5056526;28;20135;-91
2022/03/06 05:49:41;;;;;;;18.73;9.02;;;-1.60;99.90;;;;;;5072739;28;20086;-92
2022/03/06 05:52:07;;;;;;;15.93;8.48;;;-1.60;99.90;;;;;;5056275;28;20060;-93
2022/03/06 05:54:32;;;;;;;14.02;7.93;;;-1.50;99.90;;;;;;5056382;28;20056;-92
2022/03/06 05:56:58;;;;;;;14.82;8.00;;;-1.50;99.90;;;;;;5071807;28;20091;-91
2022/03/06 05:59:25;;;;;;;14.60;8.60;;;-1.50;99.90;;;;;;5055536;28;20080;-92
2022/03/06 06:01:51;;;;;;;14.60;8.45;;;-1.50;99.90;;;;;;5055360;28;20493;-91
2022/03/06 06:04:18;;;;;;;11.20;7.20;;;-1.50;99.90;;;;;;5072542;28;20040;-92
2022/03/06 06:06:44;;;;;;;15.63;7.93;;;-1.60;99.90;;;;;;5072868;28;20056;-91
2022/03/06 06:09:10;;;;;;;14.13;7.90;;;-1.60;99.90;;;;;;5072575;28;20185;-91
2022/03/06 06:11:35;;;;;;;13.38;7.60;;;-1.50;99.90;;;;;;5055446;28;20052;-91
2022/03/06 06:14:02;;;;;;;14.60;7.22;;;-1.50;99.90;;;;;;5072440;28;20131;-92
2022/03/06 06:16:28;;;;;;;13.15;6.63;;;-1.50;99.90;;;;;;5055612;28;20051;-92
2022/03/06 06:18:53;;;;;;;14.18;7.47;;;-1.50;99.90;;;;;;5055610;28;20509;-92
2022/03/06 06:21:19;;;;;;;13.98;6.78;;;-1.40;99.90;;;;;;5072122;28;20056;-92
2022/03/06 06:23:45;;;;;;;14.90;6.35;;;-1.30;99.90;;;;;;5072548;28;20056;-92
2022/03/06 06:26:11;;;;;;;9.73;6.05;;;-1.30;99.90;;;;;;5072274;28;20486;-93
2022/03/06 06:28:37;;;;;;;14.00;6.65;;;-1.20;99.90;;;;;;5072262;28;20450;-92
2022/03/06 06:31:04;;;;;;;13.55;5.90;;;-1.10;99.90;;;;;;5071644;28;20087;-91
2022/03/06 06:33:29;;;;;;;10.95;6.45;;;-1.00;99.90;;;;;;5055774;28;20056;-92
2022/03/06 06:35:55;;;;;;;12.52;5.93;;;-0.90;99.90;;;;;;5072488;28;20040;-92
2022/03/06 06:38:21;;;;;;;12.85;5.60;;;-0.90;99.90;;;;;;5072559;28;20045;-93
2022/03/06 06:40:49;;;;;;;9.43;6.05;;;-0.80;99.90;;;;;;5072316;28;20127;-91
2022/03/06 06:43:15;;;;;;;9.07;4.97;;;-0.70;99.90;;;;;;5055816;28;20048;-93
2022/03/06 06:45:41;;;;;;;9.38;4.95;;;-0.70;99.90;;;;;;5072055;28;20043;-92
2022/03/06 06:48:06;;;;;;;7.20;5.25;;;-0.60;99.90;;;;;;5072358;28;20044;-92
2022/03/06 06:50:32;;;;;;;8.57;5.05;;;-0.60;99.90;;;;;;5055340;28;20498;-93
2022/03/06 06:52:58;;;;;;;11.02;5.50;;;-0.60;99.90;;;;;;5072234;28;20048;-92
2022/03/06 06:55:24;;;;;;;8.00;4.53;;;-0.50;99.90;;;;;;5072239;28;20043;-92
2022/03/06 06:57:50;;;;;;;9.63;5.20;;;-0.40;99.90;;;;;;5072044;28;20607;-91
2022/03/06 07:00:16;;;;;;;8.77;4.20;;;-0.30;99.90;;;;;;5072113;28;20379;-91
2022/03/06 07:02:42;;;;;;;7.95;4.97;;;-0.10;99.90;;;;;;5072013;28;20097;-92
2022/03/06 07:05:11;;;;;;;9.70;4.53;;;0.00;99.90;;;;;;5055724;28;20072;-92
2022/03/06 07:07:37;;;;;;;8.82;4.63;;;0.10;99.90;;;;;;5072176;28;20047;-93
2022/03/06 07:10:04;;;;;;;7.65;4.25;;;0.20;99.90;;;;;;5075585;28;20131;-93
2022/03/06 07:12:30;;;;;;;10.35;4.95;;;0.20;99.90;;;;;;5075216;28;20039;-92
2022/03/06 07:14:56;;;;;;;8.15;4.38;;;0.30;99.90;;;;;;5058355;28;20048;-91
2022/03/06 07:17:22;;;;;;;8.48;4.25;;;0.50;99.90;;;;;;5039159;28;20487;-91
2022/03/06 07:19:48;;;;;;;8.95;5.18;;;0.50;99.90;;;;;;5038982;28;20048;-92
2022/03/06 07:22:15;;;;;;;7.05;4.32;;;0.60;99.90;;;;;;5039511;28;20061;-91
2022/03/06 07:24:41;;;;;;;11.10;4.13;;;0.60;99.90;;;;;;5092010;28;20037;-91
2022/03/06 07:27:06;;;;;;;9.23;4.45;;;0.70;99.90;;;;;;5055941;28;20051;-92
2022/03/06 07:29:33;;;;;;;6.43;4.10;;;0.80;99.90;;;;;;5056118;28;20045;-93
2022/03/06 07:31:59;;;;;;;6.97;3.90;;;0.90;99.90;;;;;;5055523;28;20135;-93
2022/03/06 07:34:25;;;;;;;8.43;4.43;;;0.90;99.90;;;;;;5056661;28;20495;-93
2022/03/06 07:36:50;;;;;;;6.57;3.50;;;1.00;99.90;;;;;;5041213;28;20037;-92
2022/03/06 07:39:16;;;;;;;7.30;4.07;;;1.10;99.90;;;;;;5055996;28;20091;-92
2022/03/06 07:41:41;;;;;;;6.88;3.67;;;1.10;99.90;;;;;;5039171;28;20509;-90
2022/03/06 07:44:07;;;;;;;10.00;4.00;;;1.10;99.90;;;;;;5039768;28;20060;-92
2022/03/06 07:46:33;;;;;;;10.38;4.20;;;1.10;99.90;;;;;;5055932;28;20072;-93
2022/03/06 07:48:58;;;;;;;7.28;3.90;;;1.10;99.90;;;;;;5040247;28;20059;-92
2022/03/06 07:51:24;;;;;;;10.32;3.97;;;1.10;99.90;;;;;;5055959;28;20055;-92
2022/03/06 07:53:50;;;;;;;6.68;3.92;;;1.10;99.90;;;;;;5056543;28;20107;-92
2022/03/06 07:56:16;;;;;;;6.80;3.60;;;1.10;99.90;;;;;;5045727;28;20045;-91
2022/03/06 07:58:42;;;;;;;8.75;3.60;;;1.20;99.90;;;;;;5075946;28;20393;-91
2022/03/06 08:01:08;;;;;;;10.43;4.18;;;1.20;99.90;;;;;;5058809;28;20037;-91
2022/03/06 08:03:33;;;;;;;6.32;3.05;;;1.20;99.90;;;;;;5058476;28;20040;-92
2022/03/06 08:05:59;;;;;;;7.40;3.42;;;1.20;99.90;;;;;;5076365;28;20130;-90
2022/03/06 08:08:24;;;;;;;6.82;3.17;;;1.20;99.90;;;;;;5076606;28;20052;-91
2022/03/06 08:10:50;;;;;;;4.47;3.00;;;1.30;99.90;;;;;;5075252;28;20071;-92
2022/03/06 08:13:16;;;;;;;6.53;3.25;;;1.40;99.90;;;;;;5076416;28;20390;-91
2022/03/06 08:15:42;;;;;;;8.90;3.10;;;1.50;99.90;;;;;;5074968;28;20098;-90
2022/03/06 08:18:07;;;;;;;5.88;3.05;;;1.60;99.90;;;;;;5059267;28;20106;-91
2022/03/06 08:20:33;;;;;;;6.18;2.90;;;1.70;99.90;;;;;;5078289;28;20060;-89
2022/03/06 08:23:00;;;;;;;9.00;2.67;;;1.70;99.90;;;;;;5078290;28;20033;-91
2022/03/06 08:25:26;;;;;;;5.45;2.83;;;1.80;99.90;;;;;;5074289;28;20048;-91
2022/03/06 08:27:52;;;;;;;6.07;2.78;;;1.80;99.90;;;;;;5057401;28;20052;-90
2022/03/06 08:30:18;;;;;;;5.75;3.15;;;1.90;99.90;;;;;;5074144;28;20406;-90
2022/03/06 08:32:43;;;;;;;3.40;2.50;;;1.90;99.90;;;;;;5056782;28;20498;-87
2022/03/06 08:35:09;;;;;;;5.38;2.92;;;1.90;99.90;;;;;;5057486;28;20084;-90
2022/03/06 08:37:35;;;;;;;4.93;2.58;;;2.00;99.90;;;;;;5074305;28;20044;-91
2022/03/06 08:40:02;;;;;;;3.95;2.42;;;2.00;99.90;;;;;;5074391;28;20398;-91
2022/03/06 08:42:27;;;;;;;4.55;2.47;;;2.10;99.90;;;;;;5057318;28;20409;-90
2022/03/06 08:44:53;;;;;;;6.35;2.92;;;2.20;99.90;;;;;;5073958;28;20128;-90
2022/03/06 08:47:19;;;;;;;4.43;2.67;;;2.30;99.90;;;;;;5057194;28;20056;-90
2022/03/06 08:49:44;;;;;;;3.90;2.30;;;2.40;99.90;;;;;;5073892;28;20040;-90
2022/03/06 08:52:10;;;;;;;4.15;2.10;;;2.40;99.90;;;;;;5085578;28;20050;-89
2022/03/06 08:54:36;;;;;;;4.55;2.50;;;2.50;99.90;;;;;;5081661;28;20100;-88
2022/03/06 08:57:03;;;;;;;3.50;2.10;;;2.60;99.90;;;;;;5097526;28;20079;-88
2022/03/06 08:59:29;;;;;;;5.30;2.38;;;2.60;99.90;;;;;;5076366;28;20050;-90
2022/03/06 09:01:55;;;;;;;5.60;2.47;;;2.70;99.90;;;;;;5074523;28;20076;-90
2022/03/06 09:04:25;;;;;;;8.32;2.65;;;2.80;99.90;;;;;;5073586;28;20087;-90
2022/03/06 09:06:52;;;;;;;6.00;2.28;;;2.90;99.90;;;;;;5073922;28;20051;-90
2022/03/06 09:09:17;;;;;;;7.32;2.60;;;3.00;99.90;;;;;;5074102;28;20071;-91
2022/03/06 09:11:45;;;;;;;4.88;2.10;;;3.10;99.90;;;;;;5074934;28;20056;-91
2022/03/06 09:14:11;;;;;;;4.00;2.45;;;3.20;99.90;;;;;;5057559;28;20064;-91
2022/03/06 09:16:37;;;;;;;6.05;2.70;;;3.30;99.90;;;;;;5057068;28;20073;-92
2022/03/06 09:19:03;;;;;;;3.92;2.00;;;3.50;99.90;;;;;;5073666;28;20044;-91
2022/03/06 09:21:29;;;;;;;5.03;2.30;;;3.90;99.90;;;;;;5073512;28;20052;-90
2022/03/06 09:23:55;;;;;;;4.85;2.05;;;4.70;99.90;;;;;;5057038;28;20387;-92
2022/03/06 09:26:21;;;;;;;4.47;2.40;;;6.10;99.90;;;;;;5057952;28;20044;-90
2022/03/06 09:28:46;;;;;;;4.03;2.30;;;7.40;99.90;;;;;;5077919;28;20045;-92
2022/03/06 09:31:12;;;;;;;3.97;2.08;;;8.50;99.90;;;;;;5080684;28;20041;-91
2022/03/06 09:33:38;;;;;;;4.45;2.22;;;9.40;99.90;;;;;;5081678;28;20036;-90
2022/03/06 09:36:04;;;;;;;3.45;2.15;;;10.20;99.90;;;;;;5065881;28;20398;-90
2022/03/06 09:38:29;;;;;;;3.97;2.00;;;10.90;98.70;;;;;;5083408;28;20048;-89
2022/03/06 09:40:59;;;;;;;3.58;2.00;;;11.50;95.90;;;;;;5081500;28;20047;-91
2022/03/06 09:43:26;;;;;;;3.20;2.17;;;12.00;91.60;;;;;;5082413;28;20051;-92
2022/03/06 09:46:05;;;;;;;3.55;2.15;;;12.30;86.70;;;;;;5082336;28;20037;-91
2022/03/06 09:48:31;;;;;;;3.95;2.30;;;12.60;78.50;;;;;;5084076;28;20478;-90
2022/03/06 09:50:57;;;;;;;4.25;2.00;;;13.40;76.30;;;;;;5064239;28;20053;-92
2022/03/06 09:53:23;;;;;;;3.63;2.30;;;13.80;73.70;;;;;;5064531;28;20044;-92
2022/03/06 09:55:49;;;;;;;4.55;2.40;;;14.00;66.30;;;;;;5080672;28;20041;-91
2022/03/06 09:58:15;;;;;;;2.38;2.05;;;14.20;63.70;;;;;;5060848;28;20045;-91
2022/03/06 10:00:41;;;;;;;3.15;2.38;;;14.50;61.10;;;;;;5074936;28;20398;-91
2022/03/06 10:03:07;;;;;;;4.15;2.42;;;14.60;59.30;;;;;;5057806;28;20516;-91
2022/03/06 10:05:36;;;;;;;3.55;2.65;;;15.10;57.40;;;;;;5073028;28;20036;-91
2022/03/06 10:08:26;;;;;;;4.72;2.40;;;14.70;57.10;;;;;;5073078;28;20549;-91
2022/03/06 10:10:57;;;;;;;4.55;2.30;;;14.70;54.40;;;;;;5055825;28;20509;-91
2022/03/06 10:13:35;;;;;;;4.63;2.30;;;15.20;56.50;;;;;;5055900;28;20117;-92
2022/03/06 10:16:10;;;;;;;3.80;2.40;;;15.40;53.30;;;;;;5055828;28;20044;-92
2022/03/06 10:18:38;;;;;;;3.72;2.20;;;15.60;51.60;;;;;;5072783;28;20051;-91
2022/03/06 10:21:13;;;;;;;3.13;2.10;;;15.60;51.40;;;;;;5047864;28;20133;-91
2022/03/06 10:23:40;;;;;;;4.68;2.20;;;15.50;49.90;;;;;;5085595;28;20052;-91
2022/03/06 10:26:09;;;;;;;3.88;2.45;;;15.40;50.10;;;;;;5069128;28;20049;-91
2022/03/06 10:28:52;;;;;;;3.72;2.13;;;15.30;49.30;;;;;;5085719;28;20049;-92
2022/03/06 10:31:19;;;;;;;3.60;1.95;;;15.20;48.10;;;;;;5067763;28;20056;-91
2022/03/06 10:33:54;;;;;;;4.35;2.10;;;15.40;48.00;;;;;;5086617;28;20037;-91
2022/03/06 10:36:29;;;;;;;3.22;1.90;;;15.60;48.20;;;;;;5068740;28;20049;-92
2022/03/06 10:38:55;;;;;;;5.00;2.17;;;15.90;46.60;;;;;;5086011;28;20493;-92
2022/03/06 10:41:20;;;;;;;4.03;2.15;;;16.20;47.10;;;;;;5086885;28;20059;-92
2022/03/06 10:43:48;;;;;;;2.42;1.85;;;16.40;47.00;;;;;;5068516;28;20049;-91
2022/03/06 10:46:18;;;;;;;4.82;1.80;;;16.70;46.30;;;;;;5086082;28;20553;-94
2022/03/06 10:48:58;;;;;;;4.45;2.13;;;16.60;45.50;;;;;;5068199;28;20060;-91
2022/03/06 10:51:25;;;;;;;3.90;2.22;;;16.40;43.60;;;;;;5068866;28;20037;-92
2022/03/06 10:53:53;;;;;;;4.18;1.90;;;16.20;44.80;;;;;;5085989;28;20045;-91
2022/03/06 10:56:20;;;;;;;3.58;2.15;;;16.20;45.70;;;;;;5069170;28;20044;-92
2022/03/06 10:58:47;;;;;;;4.85;1.98;;;16.30;44.40;;;;;;5086150;28;20140;-93
2022/03/06 11:01:13;;;;;;;3.50;2.05;;;16.50;44.70;;;;;;5086100;28;20419;-93
2022/03/06 11:03:40;;;;;;;6.05;2.05;;;16.80;43.30;;;;;;5085647;28;20095;-92
2022/03/06 11:06:08;;;;;;;2.95;1.90;;;17.10;43.40;;;;;;5085899;28;20098;-90
2022/03/06 11:08:34;;;;;;;2.08;1.83;;;17.00;42.30;;;;;;5085657;28;20084;-92
2022/03/06 11:11:01;;;;;;;4.55;1.88;;;16.70;42.60;;;;;;5085055;28;20498;-92
2022/03/06 11:13:30;;;;;;;2.92;1.75;;;16.40;42.50;;;;;;5085676;28;20091;-90
2022/03/06 11:15:56;;;;;;;4.35;1.63;;;16.30;42.00;;;;;;5068653;28;20045;-91
2022/03/06 11:18:26;;;;;;;4.57;1.85;;;16.30;42.70;;;;;;5085504;28;20502;-91
2022/03/06 11:20:58;;;;;;;7.90;2.10;;;16.30;42.10;;;;;;5085593;28;20053;-93
2022/03/06 11:23:44;;;;;;;7.03;2.20;;;16.40;42.70;;;;;;5085545;28;20068;-90
2022/03/06 11:26:09;;;;;;;4.32;1.90;;;16.70;42.10;;;;;;5068621;28;20397;-90
2022/03/06 11:28:53;;;;;;;3.42;1.90;;;16.80;41.50;;;;;;5068783;28;20037;-90
2022/03/06 11:31:21;;;;;;;3.67;2.08;;;17.00;41.10;;;;;;5068163;28;20128;-92
2022/03/06 11:34:02;;;;;;;3.38;1.60;;;17.10;41.60;;;;;;5085795;28;20041;-93
2022/03/06 11:36:28;;;;;;;4.10;1.98;;;17.30;40.40;;;;;;5085248;28;20098;-91
2022/03/06 11:38:54;;;;;;;4.55;2.00;;;17.30;40.80;;;;;;5051295;28;20049;-91
2022/03/06 11:41:20;;;;;;;2.97;1.65;;;17.10;40.80;;;;;;5086184;28;20474;-94
2022/03/06 11:43:50;;;;;;;3.63;1.83;;;17.40;40.70;;;;;;5051842;28;20139;-92
2022/03/06 11:46:26;;;;;;;4.33;1.90;;;17.80;39.70;;;;;;5068609;28;20049;-94
2022/03/06 11:48:51;;;;;;;4.53;1.90;;;18.00;39.90;;;;;;5085308;28;20136;-92
2022/03/06 11:51:19;;;;;;;3.72;1.90;;;18.20;39.80;;;;;;5068100;28;20144;-93
2022/03/06 11:53:57;;;;;;;5.97;2.35;;;18.30;39.10;;;;;;5085846;28;20479;-92
2022/03/06 11:56:32;;;;;;;4.10;2.10;;;18.30;38.80;;;;;;5054165;28;20143;-91
2022/03/06 11:59:05;;;;;;;3.22;1.80;;;18.20;39.20;;;;;;5089348;28;20095;-92
2022/03/06 12:01:39;;;;;;;4.75;1.88;;;18.50;39.60;;;;;;5071168;28;20056;-92
2022/03/06 12:04:16;;;;;;;5.20;2.08;;;18.70;38.90;;;;;;5089434;28;20045;-92
2022/03/06 12:06:48;;;;;;;4.75;1.90;;;19.00;39.10;;;;;;5088303;28;20486;-92
2022/03/06 12:09:24;;;;;;;2.85;1.95;;;18.90;38.50;;;;;;5088317;28;20097;-90
2022/03/06 12:11:52;;;;;;;4.00;1.90;;;18.60;38.90;;;;;;5088768;28;20041;-93
2022/03/06 12:14:27;;;;;;;3.00;1.80;;;18.40;39.20;;;;;;5076108;28;20055;-92
2022/03/06 12:17:12;;;;;;;3.50;1.80;;;18.30;38.80;;;;;;5056433;28;20410;-94
2022/03/06 12:19:44;;;;;;;2.85;1.85;;;18.10;38.90;;;;;;5072650;28;20056;-94
2022/03/06 12:22:12;;;;;;;3.35;1.80;;;18.30;39.20;;;;;;5039752;28;20057;-92
2022/03/06 12:24:39;;;;;;;2.53;2.05;;;18.30;39.20;;;;;;5055776;28;20074;-96
2022/03/06 12:27:15;;;;;;;4.85;2.08;;;18.40;38.40;;;;;;5055620;28;20037;-95
2022/03/06 12:29:53;;;;;;;4.18;2.15;;;18.60;39.00;;;;;;5088860;28;20069;-93
2022/03/06 12:32:25;;;;;;;4.18;1.77;;;19.10;38.80;;;;;;5072506;28;20049;-90
2022/03/06 12:34:57;;;;;;;4.03;2.00;;;19.30;37.90;;;;;;5040877;28;20108;-95
2022/03/06 12:37:26;;;;;;;3.17;1.92;;;19.20;37.90;;;;;;5039683;28;20119;-96
2022/03/06 12:39:52;;;;;;;6.07;2.13;;;19.30;38.00;;;;;;5055337;28;20040;-90